sensor_id;sensor_type;location;lat;lon;timestamp;pressure;altitude;pressure_sealevel;temperature;humidity
50852;BME280;43953;45.508;-122.806;2023-04-25T00:00:06;101382.09;;;17.38;44.56
50852;BME280;43953;45.508;-122.806;2023-04-25T00:00:38;101383.72;;;17.39;44.76
50852;BME280;43953;45.508;-122.806;2023-04-25T00:01:10;101388.13;;;17.40;44.66
50852;BME280;43953;45.508;-122.806;2023-04-25T00:01:44;101389.16;;;17.39;44.60
50852;BME280;43953;45.508;-122.806;2023-04-25T00:02:15;101388.59;;;17.37;44.63
50852;BME280;43953;45.508;-122.806;2023-04-25T00:02:47;101385.28;;;17.35;44.69
50852;BME280;43953;45.508;-122.806;2023-04-25T00:03:20;101382.78;;;17.33;44.52
50852;BME280;43953;45.508;-122.806;2023-04-25T00:03:52;101382.22;;;17.31;44.55
50852;BME280;43953;45.508;-122.806;2023-04-25T00:04:24;101395.56;;;17.33;44.77
50852;BME280;43953;45.508;-122.806;2023-04-25T00:04:56;101385.97;;;17.30;44.43
50852;BME280;43953;45.508;-122.806;2023-04-25T00:05:29;101383.50;;;17.28;44.55
50852;BME280;43953;45.508;-122.806;2023-04-25T00:06:01;101385.63;;;17.26;44.69
50852;BME280;43953;45.508;-122.806;2023-04-25T00:06:34;101391.31;;;17.25;44.68
50852;BME280;43953;45.508;-122.806;2023-04-25T00:07:07;101392.38;;;17.24;44.62
50852;BME280;43953;45.508;-122.806;2023-04-25T00:07:39;101384.47;;;17.22;44.62
50852;BME280;43953;45.508;-122.806;2023-04-25T00:08:13;101392.84;;;17.21;44.64
50852;BME280;43953;45.508;-122.806;2023-04-25T00:08:44;101394.75;;;17.20;44.74
50852;BME280;43953;45.508;-122.806;2023-04-25T00:09:16;101395.00;;;17.19;44.70
50852;BME280;43953;45.508;-122.806;2023-04-25T00:09:48;101396.28;;;17.16;44.55
50852;BME280;43953;45.508;-122.806;2023-04-25T00:10:20;101393.78;;;17.15;44.83
50852;BME280;43953;45.508;-122.806;2023-04-25T00:10:52;101402.22;;;17.13;44.88
50852;BME280;43953;45.508;-122.806;2023-04-25T00:11:24;101395.09;;;17.12;44.88
50852;BME280;43953;45.508;-122.806;2023-04-25T00:11:56;101398.88;;;17.11;45.02
50852;BME280;43953;45.508;-122.806;2023-04-25T00:12:28;101403.72;;;17.09;45.08
50852;BME280;43953;45.508;-122.806;2023-04-25T00:12:59;101400.44;;;17.07;45.39
50852;BME280;43953;45.508;-122.806;2023-04-25T00:13:34;101397.94;;;17.05;45.13
50852;BME280;43953;45.508;-122.806;2023-04-25T00:14:05;101395.47;;;17.04;45.23
50852;BME280;43953;45.508;-122.806;2023-04-25T00:14:37;101392.75;;;17.04;45.34
50852;BME280;43953;45.508;-122.806;2023-04-25T00:15:10;101390.25;;;17.02;45.19
50852;BME280;43953;45.508;-122.806;2023-04-25T00:15:43;101391.31;;;17.01;45.25
50852;BME280;43953;45.508;-122.806;2023-04-25T00:16:15;101393.22;;;17.01;45.10
50852;BME280;43953;45.508;-122.806;2023-04-25T00:16:47;101394.03;;;17.01;45.00
50852;BME280;43953;45.508;-122.806;2023-04-25T00:17:19;101389.06;;;16.98;45.14
50852;BME280;43953;45.508;-122.806;2023-04-25T00:17:51;101392.84;;;16.97;45.06
50852;BME280;43953;45.508;-122.806;2023-04-25T00:18:24;101395.81;;;16.96;45.30
50852;BME280;43953;45.508;-122.806;2023-04-25T00:18:56;101394.16;;;16.95;45.22
50852;BME280;43953;45.508;-122.806;2023-04-25T00:19:28;101394.72;;;16.97;45.25
50852;BME280;43953;45.508;-122.806;2023-04-25T00:19:59;101400.41;;;16.95;45.22
50852;BME280;43953;45.508;-122.806;2023-04-25T00:20:31;101395.81;;;16.96;45.24
50852;BME280;43953;45.508;-122.806;2023-04-25T00:21:03;101396.41;;;16.98;45.28
50852;BME280;43953;45.508;-122.806;2023-04-25T00:21:37;101395.56;;;16.97;45.21
50852;BME280;43953;45.508;-122.806;2023-04-25T00:22:12;101395.81;;;16.96;45.18
50852;BME280;43953;45.508;-122.806;2023-04-25T00:22:44;101400.78;;;16.99;45.43
50852;BME280;43953;45.508;-122.806;2023-04-25T00:23:16;101395.34;;;16.99;45.14
50852;BME280;43953;45.508;-122.806;2023-04-25T00:23:53;101399.69;;;17.00;44.91
50852;BME280;43953;45.508;-122.806;2023-04-25T00:24:24;101394.84;;;17.02;45.15
50852;BME280;43953;45.508;-122.806;2023-04-25T00:24:56;101397.34;;;17.03;45.25
50852;BME280;43953;45.508;-122.806;2023-04-25T00:25:31;101397.59;;;17.02;45.36
50852;BME280;43953;45.508;-122.806;2023-04-25T00:26:03;101398.66;;;17.01;45.49
50852;BME280;43953;45.508;-122.806;2023-04-25T00:26:35;101393.44;;;16.99;45.72
50852;BME280;43953;45.508;-122.806;2023-04-25T00:27:07;101397.44;;;16.97;45.81
50852;BME280;43953;45.508;-122.806;2023-04-25T00:27:38;101397.91;;;16.94;45.82
50852;BME280;43953;45.508;-122.806;2023-04-25T00:28:11;101390.00;;;16.92;46.08
50852;BME280;43953;45.508;-122.806;2023-04-25T00:28:43;101403.84;;;16.91;45.80
50852;BME280;43953;45.508;-122.806;2023-04-25T00:29:15;101394.03;;;16.90;45.74
50852;BME280;43953;45.508;-122.806;2023-04-25T00:29:46;101398.38;;;16.91;45.86
50852;BME280;43953;45.508;-122.806;2023-04-25T00:30:18;101402.19;;;16.90;45.61
50852;BME280;43953;45.508;-122.806;2023-04-25T00:30:50;101402.41;;;16.88;45.77
50852;BME280;43953;45.508;-122.806;2023-04-25T00:31:22;101399.94;;;16.87;45.60
50852;BME280;43953;45.508;-122.806;2023-04-25T00:31:56;101397.22;;;16.87;45.65
50852;BME280;43953;45.508;-122.806;2023-04-25T00:32:28;101400.97;;;16.86;45.85
50852;BME280;43953;45.508;-122.806;2023-04-25T00:32:59;101398.03;;;16.87;45.88
50852;BME280;43953;45.508;-122.806;2023-04-25T00:33:31;101402.41;;;16.88;46.12
50852;BME280;43953;45.508;-122.806;2023-04-25T00:34:03;101401.56;;;16.88;46.14
50852;BME280;43953;45.508;-122.806;2023-04-25T00:34:35;101398.84;;;16.88;45.92
50852;BME280;43953;45.508;-122.806;2023-04-25T00:35:07;101398.84;;;16.88;45.93
50852;BME280;43953;45.508;-122.806;2023-04-25T00:35:39;101407.28;;;16.86;46.14
50852;BME280;43953;45.508;-122.806;2023-04-25T00:36:11;101400.97;;;16.86;46.10
50852;BME280;43953;45.508;-122.806;2023-04-25T00:36:42;101410.22;;;16.85;46.07
50852;BME280;43953;45.508;-122.806;2023-04-25T00:37:14;101395.78;;;16.84;46.20
50852;BME280;43953;45.508;-122.806;2023-04-25T00:37:46;101394.34;;;16.81;46.13
50852;BME280;43953;45.508;-122.806;2023-04-25T00:38:18;101398.16;;;16.80;45.95
50852;BME280;43953;45.508;-122.806;2023-04-25T00:38:49;101406.31;;;16.80;45.75
50852;BME280;43953;45.508;-122.806;2023-04-25T00:39:21;101402.97;;;16.78;45.53
50852;BME280;43953;45.508;-122.806;2023-04-25T00:39:53;101402.97;;;16.78;45.43
50852;BME280;43953;45.508;-122.806;2023-04-25T00:40:27;101404.06;;;16.77;45.62
50852;BME280;43953;45.508;-122.806;2023-04-25T00:40:59;101408.63;;;16.77;45.63
50852;BME280;43953;45.508;-122.806;2023-04-25T00:41:31;101402.38;;;16.76;45.85
50852;BME280;43953;45.508;-122.806;2023-04-25T00:42:04;101409.50;;;16.77;45.93
50852;BME280;43953;45.508;-122.806;2023-04-25T00:42:37;101402.16;;;16.78;45.92
50852;BME280;43953;45.508;-122.806;2023-04-25T00:43:09;101397.53;;;16.78;46.10
50852;BME280;43953;45.508;-122.806;2023-04-25T00:43:41;101398.38;;;16.79;45.96
50852;BME280;43953;45.508;-122.806;2023-04-25T00:44:13;101407.13;;;16.81;46.10
50852;BME280;43953;45.508;-122.806;2023-04-25T00:44:48;101405.25;;;16.81;45.98
50852;BME280;43953;45.508;-122.806;2023-04-25T00:45:20;101405.03;;;16.83;46.17
50852;BME280;43953;45.508;-122.806;2023-04-25T00:45:52;101403.34;;;16.82;46.25
50852;BME280;43953;45.508;-122.806;2023-04-25T00:46:24;101398.16;;;16.80;46.23
50852;BME280;43953;45.508;-122.806;2023-04-25T00:46:56;101397.28;;;16.80;46.33
50852;BME280;43953;45.508;-122.806;2023-04-25T00:47:28;101403.59;;;16.80;46.51
50852;BME280;43953;45.508;-122.806;2023-04-25T00:48:01;101403.59;;;16.80;46.57
50852;BME280;43953;45.508;-122.806;2023-04-25T00:48:33;101395.66;;;16.79;46.41
50852;BME280;43953;45.508;-122.806;2023-04-25T00:49:05;101400.25;;;16.78;46.66
50852;BME280;43953;45.508;-122.806;2023-04-25T00:49:37;101397.75;;;16.77;46.58
50852;BME280;43953;45.508;-122.806;2023-04-25T00:50:09;101396.94;;;16.76;46.73
50852;BME280;43953;45.508;-122.806;2023-04-25T00:50:41;101400.69;;;16.75;46.60
50852;BME280;43953;45.508;-122.806;2023-04-25T00:51:16;101404.50;;;16.74;47.05
50852;BME280;43953;45.508;-122.806;2023-04-25T00:51:50;101407.00;;;16.76;46.87
50852;BME280;43953;45.508;-122.806;2023-04-25T00:52:21;101400.69;;;16.75;46.78
50852;BME280;43953;45.508;-122.806;2023-04-25T00:52:53;101402.59;;;16.75;46.64
50852;BME280;43953;45.508;-122.806;2023-04-25T00:53:27;101403.63;;;16.74;46.62
50852;BME280;43953;45.508;-122.806;2023-04-25T00:53:59;101404.50;;;16.74;46.60
50852;BME280;43953;45.508;-122.806;2023-04-25T00:54:31;101411.56;;;16.75;46.78
50852;BME280;43953;45.508;-122.806;2023-04-25T00:55:03;101404.06;;;16.77;46.71
50852;BME280;43953;45.508;-122.806;2023-04-25T00:55:35;101409.50;;;16.77;46.81
50852;BME280;43953;45.508;-122.806;2023-04-25T00:56:07;101403.81;;;16.79;46.82
50852;BME280;43953;45.508;-122.806;2023-04-25T00:56:39;101401.91;;;16.79;46.74
50852;BME280;43953;45.508;-122.806;2023-04-25T00:57:11;101412.78;;;16.79;46.75
50852;BME280;43953;45.508;-122.806;2023-04-25T00:57:43;101406.53;;;16.79;46.63
50852;BME280;43953;45.508;-122.806;2023-04-25T00:58:15;101402.97;;;16.78;46.64
50852;BME280;43953;45.508;-122.806;2023-04-25T00:58:48;101403.19;;;16.77;46.66
50852;BME280;43953;45.508;-122.806;2023-04-25T00:59:20;101408.63;;;16.77;46.60
50852;BME280;43953;45.508;-122.806;2023-04-25T00:59:53;101407.34;;;16.79;46.74
50852;BME280;43953;45.508;-122.806;2023-04-25T01:00:25;101406.31;;;16.80;46.66
50852;BME280;43953;45.508;-122.806;2023-04-25T01:00:57;101409.84;;;16.81;46.72
50852;BME280;43953;45.508;-122.806;2023-04-25T01:01:30;101412.31;;;16.82;46.36
50852;BME280;43953;45.508;-122.806;2023-04-25T01:02:04;101415.03;;;16.82;46.29
50852;BME280;43953;45.508;-122.806;2023-04-25T01:02:36;101414.00;;;16.83;46.12
50852;BME280;43953;45.508;-122.806;2023-04-25T01:03:08;101417.75;;;16.82;46.19
50852;BME280;43953;45.508;-122.806;2023-04-25T01:03:41;101413.19;;;16.83;45.93
50852;BME280;43953;45.508;-122.806;2023-04-25T01:04:14;101417.53;;;16.84;45.94
50852;BME280;43953;45.508;-122.806;2023-04-25T01:04:46;101416.72;;;16.83;46.16
50852;BME280;43953;45.508;-122.806;2023-04-25T01:05:19;101421.09;;;16.85;45.94
50852;BME280;43953;45.508;-122.806;2023-04-25T01:05:51;101418.38;;;16.85;45.95
50852;BME280;43953;45.508;-122.806;2023-04-25T01:06:23;101421.09;;;16.85;45.91
50852;BME280;43953;45.508;-122.806;2023-04-25T01:06:54;101420.00;;;16.86;46.06
50852;BME280;43953;45.508;-122.806;2023-04-25T01:07:26;101415.66;;;16.85;46.23
50852;BME280;43953;45.508;-122.806;2023-04-25T01:07:58;101418.16;;;16.86;46.17
50852;BME280;43953;45.508;-122.806;2023-04-25T01:08:31;101414.56;;;16.86;46.17
50852;BME280;43953;45.508;-122.806;2023-04-25T01:09:03;101408.09;;;16.87;46.06
50852;BME280;43953;45.508;-122.806;2023-04-25T01:09:36;101418.97;;;16.87;45.92
50852;BME280;43953;45.508;-122.806;2023-04-25T01:10:08;101420.63;;;16.88;46.14
50852;BME280;43953;45.508;-122.806;2023-04-25T01:10:40;101415.19;;;16.88;45.92
50852;BME280;43953;45.508;-122.806;2023-04-25T01:11:12;101418.50;;;16.90;45.75
50852;BME280;43953;45.508;-122.806;2023-04-25T01:11:44;101416.81;;;16.89;45.96
50852;BME280;43953;45.508;-122.806;2023-04-25T01:12:16;101423.94;;;16.90;45.93
50852;BME280;43953;45.508;-122.806;2023-04-25T01:12:48;101418.72;;;16.88;45.81
50852;BME280;43953;45.508;-122.806;2023-04-25T01:13:19;101425.22;;;16.87;45.96
50852;BME280;43953;45.508;-122.806;2023-04-25T01:13:51;101417.28;;;16.86;45.96
50852;BME280;43953;45.508;-122.806;2023-04-25T01:14:23;101420.88;;;16.86;46.27
50852;BME280;43953;45.508;-122.806;2023-04-25T01:14:55;101409.13;;;16.86;46.07
50852;BME280;43953;45.508;-122.806;2023-04-25T01:15:27;101420.00;;;16.86;46.20
50852;BME280;43953;45.508;-122.806;2023-04-25T01:15:59;101425.22;;;16.87;45.96
50852;BME280;43953;45.508;-122.806;2023-04-25T01:16:31;101418.16;;;16.86;45.92
50852;BME280;43953;45.508;-122.806;2023-04-25T01:17:04;101421.69;;;16.87;45.88
50852;BME280;43953;45.508;-122.806;2023-04-25T01:17:36;101422.50;;;16.87;45.78
50852;BME280;43953;45.508;-122.806;2023-04-25T01:18:09;101416.81;;;16.89;45.89
50852;BME280;43953;45.508;-122.806;2023-04-25T01:18:41;101417.91;;;16.88;45.71
50852;BME280;43953;45.508;-122.806;2023-04-25T01:19:16;101416.00;;;16.88;45.51
50852;BME280;43953;45.508;-122.806;2023-04-25T01:19:49;101422.50;;;16.87;45.51
50852;BME280;43953;45.508;-122.806;2023-04-25T01:20:22;101420.00;;;16.86;45.44
50852;BME280;43953;45.508;-122.806;2023-04-25T01:20:55;101420.25;;;16.84;45.79
50852;BME280;43953;45.508;-122.806;2023-04-25T01:21:26;101421.09;;;16.85;45.75
50852;BME280;43953;45.508;-122.806;2023-04-25T01:22:01;101425.69;;;16.84;45.62
50852;BME280;43953;45.508;-122.806;2023-04-25T01:22:33;101424.88;;;16.83;45.73
50852;BME280;43953;45.508;-122.806;2023-04-25T01:23:05;101429.50;;;16.83;45.95
50852;BME280;43953;45.508;-122.806;2023-04-25T01:23:39;101431.16;;;16.84;45.82
50852;BME280;43953;45.508;-122.806;2023-04-25T01:24:12;101429.50;;;16.83;46.01
50852;BME280;43953;45.508;-122.806;2023-04-25T01:24:44;101434.06;;;16.82;45.86
50852;BME280;43953;45.508;-122.806;2023-04-25T01:25:16;101442.50;;;16.81;45.86
50852;BME280;43953;45.508;-122.806;2023-04-25T01:25:49;101429.94;;;16.80;46.01
50852;BME280;43953;45.508;-122.806;2023-04-25T01:26:21;101434.53;;;16.79;45.86
50852;BME280;43953;45.508;-122.806;2023-04-25T01:26:54;101431.25;;;16.77;45.86
50852;BME280;43953;45.508;-122.806;2023-04-25T01:27:27;101437.72;;;16.76;46.06
50852;BME280;43953;45.508;-122.806;2023-04-25T01:27:59;101437.94;;;16.75;45.91
50852;BME280;43953;45.508;-122.806;2023-04-25T01:28:33;101437.13;;;16.74;46.04
50852;BME280;43953;45.508;-122.806;2023-04-25T01:29:07;101440.06;;;16.73;46.18
50852;BME280;43953;45.508;-122.806;2023-04-25T01:29:39;101444.69;;;16.72;46.17
50852;BME280;43953;45.508;-122.806;2023-04-25T01:30:11;101443.03;;;16.71;46.32
50852;BME280;43953;45.508;-122.806;2023-04-25T01:30:43;101443.03;;;16.71;46.35
50852;BME280;43953;45.508;-122.806;2023-04-25T01:31:15;101445.13;;;16.69;46.19
50852;BME280;43953;45.508;-122.806;2023-04-25T01:31:48;101437.44;;;16.66;46.62
50852;BME280;43953;45.508;-122.806;2023-04-25T01:32:21;101443.94;;;16.65;46.54
50852;BME280;43953;45.508;-122.806;2023-04-25T01:32:57;101439.56;;;16.64;46.79
50852;BME280;43953;45.508;-122.806;2023-04-25T01:33:29;101442.53;;;16.63;46.49
50852;BME280;43953;45.508;-122.806;2023-04-25T01:34:01;101443.56;;;16.61;46.47
50852;BME280;43953;45.508;-122.806;2023-04-25T01:34:32;101443.56;;;16.61;46.64
50852;BME280;43953;45.508;-122.806;2023-04-25T01:35:06;101441.91;;;16.60;46.67
50852;BME280;43953;45.508;-122.806;2023-04-25T01:35:41;101443.56;;;16.61;46.82
50852;BME280;43953;45.508;-122.806;2023-04-25T01:36:13;101446.06;;;16.63;46.72
50852;BME280;43953;45.508;-122.806;2023-04-25T01:36:48;101447.09;;;16.62;46.82
50852;BME280;43953;45.508;-122.806;2023-04-25T01:37:21;101446.53;;;16.60;46.61
50852;BME280;43953;45.508;-122.806;2023-04-25T01:37:53;101451.16;;;16.59;46.98
50852;BME280;43953;45.508;-122.806;2023-04-25T01:38:25;101455.97;;;16.57;47.04
50852;BME280;43953;45.508;-122.806;2023-04-25T01:38:57;101451.81;;;16.55;46.89
50852;BME280;43953;45.508;-122.806;2023-04-25T01:39:29;101455.63;;;16.54;47.06
50852;BME280;43953;45.508;-122.806;2023-04-25T01:40:01;101456.91;;;16.51;47.14
50852;BME280;43953;45.508;-122.806;2023-04-25T01:40:34;101458.19;;;16.49;47.32
50852;BME280;43953;45.508;-122.806;2023-04-25T01:41:07;101460.06;;;16.48;47.41
50852;BME280;43953;45.508;-122.806;2023-04-25T01:41:39;101457.13;;;16.50;47.50
50852;BME280;43953;45.508;-122.806;2023-04-25T01:42:12;101459.63;;;16.51;47.45
50852;BME280;43953;45.508;-122.806;2023-04-25T01:42:44;101458.53;;;16.52;47.58
50852;BME280;43953;45.508;-122.806;2023-04-25T01:43:16;101462.09;;;16.53;47.66
50852;BME280;43953;45.508;-122.806;2023-04-25T01:43:48;101459.97;;;16.55;47.67
50852;BME280;43953;45.508;-122.806;2023-04-25T01:44:20;101461.63;;;16.56;47.47
50852;BME280;43953;45.508;-122.806;2023-04-25T01:44:52;101463.31;;;16.57;47.51
50852;BME280;43953;45.508;-122.806;2023-04-25T01:45:24;101463.88;;;16.59;47.22
50852;BME280;43953;45.508;-122.806;2023-04-25T01:45:56;101460.13;;;16.60;47.24
50852;BME280;43953;45.508;-122.806;2023-04-25T01:46:29;101464.50;;;16.61;47.08
50852;BME280;43953;45.508;-122.806;2023-04-25T01:47:01;101465.56;;;16.60;46.86
50852;BME280;43953;45.508;-122.806;2023-04-25T01:47:33;101461.78;;;16.61;46.82
50852;BME280;43953;45.508;-122.806;2023-04-25T01:48:07;101460.94;;;16.60;46.81
50852;BME280;43953;45.508;-122.806;2023-04-25T01:48:39;101461.78;;;16.61;47.14
50852;BME280;43953;45.508;-122.806;2023-04-25T01:49:11;101464.50;;;16.61;46.90
50852;BME280;43953;45.508;-122.806;2023-04-25T01:49:42;101463.66;;;16.60;46.88
50852;BME280;43953;45.508;-122.806;2023-04-25T01:50:16;101464.50;;;16.61;46.81
50852;BME280;43953;45.508;-122.806;2023-04-25T01:50:48;101457.41;;;16.60;46.85
50852;BME280;43953;45.508;-122.806;2023-04-25T01:51:20;101457.63;;;16.58;47.03
50852;BME280;43953;45.508;-122.806;2023-04-25T01:51:52;101457.88;;;16.57;47.18
50852;BME280;43953;45.508;-122.806;2023-04-25T01:52:24;101448.66;;;16.58;46.79
50852;BME280;43953;45.508;-122.806;2023-04-25T01:52:56;101450.75;;;16.56;47.25
50852;BME280;43953;45.508;-122.806;2023-04-25T01:53:28;101452.66;;;16.55;47.13
50852;BME280;43953;45.508;-122.806;2023-04-25T01:54:00;101457.88;;;16.57;47.37
50852;BME280;43953;45.508;-122.806;2023-04-25T01:54:32;101452.44;;;16.57;47.13
50852;BME280;43953;45.508;-122.806;2023-04-25T01:55:05;101456.81;;;16.58;47.02
50852;BME280;43953;45.508;-122.806;2023-04-25T01:55:37;101445.94;;;16.58;47.11
50852;BME280;43953;45.508;-122.806;2023-04-25T01:56:08;101461.16;;;16.59;47.16
50852;BME280;43953;45.508;-122.806;2023-04-25T01:56:41;101446.75;;;16.58;46.99
50852;BME280;43953;45.508;-122.806;2023-04-25T01:57:13;101452.19;;;16.58;47.12
50852;BME280;43953;45.508;-122.806;2023-04-25T01:57:45;101455.72;;;16.59;47.09
50852;BME280;43953;45.508;-122.806;2023-04-25T01:58:16;101458.44;;;16.59;47.18
50852;BME280;43953;45.508;-122.806;2023-04-25T01:58:48;101459.53;;;16.58;47.20
50852;BME280;43953;45.508;-122.806;2023-04-25T01:59:20;101454.31;;;16.56;47.13
50852;BME280;43953;45.508;-122.806;2023-04-25T01:59:59;101458.09;;;16.55;47.18
50852;BME280;43953;45.508;-122.806;2023-04-25T02:00:32;101461.63;;;16.56;47.17
50852;BME280;43953;45.508;-122.806;2023-04-25T02:01:04;101465.41;;;16.55;47.28
50852;BME280;43953;45.508;-122.806;2023-04-25T02:01:35;101459.97;;;16.55;47.29
50852;BME280;43953;45.508;-122.806;2023-04-25T02:02:07;101458.34;;;16.54;47.28
50852;BME280;43953;45.508;-122.806;2023-04-25T02:02:39;101461.28;;;16.52;47.38
50852;BME280;43953;45.508;-122.806;2023-04-25T02:03:11;101463.16;;;16.52;47.59
50852;BME280;43953;45.508;-122.806;2023-04-25T02:03:43;101460.44;;;16.52;47.44
50852;BME280;43953;45.508;-122.806;2023-04-25T02:04:14;101463.38;;;16.50;47.46
50852;BME280;43953;45.508;-122.806;2023-04-25T02:04:46;101460.91;;;16.49;47.27
50852;BME280;43953;45.508;-122.806;2023-04-25T02:05:18;101463.00;;;16.47;47.36
50852;BME280;43953;45.508;-122.806;2023-04-25T02:05:53;101459.72;;;16.45;47.53
50852;BME280;43953;45.508;-122.806;2023-04-25T02:06:25;101459.72;;;16.45;47.77
50852;BME280;43953;45.508;-122.806;2023-04-25T02:06:56;101462.44;;;16.45;47.84
50852;BME280;43953;45.508;-122.806;2023-04-25T02:07:28;101462.44;;;16.45;47.35
50852;BME280;43953;45.508;-122.806;2023-04-25T02:08:00;101452.84;;;16.42;47.31
50852;BME280;43953;45.508;-122.806;2023-04-25T02:08:32;101453.06;;;16.41;47.63
50852;BME280;43953;45.508;-122.806;2023-04-25T02:09:03;101456.84;;;16.40;47.40
50852;BME280;43953;45.508;-122.806;2023-04-25T02:09:35;101452.44;;;16.38;47.64
50852;BME280;43953;45.508;-122.806;2023-04-25T02:10:10;101455.16;;;16.38;47.70
50852;BME280;43953;45.508;-122.806;2023-04-25T02:10:41;101456.50;;;16.36;47.60
50852;BME280;43953;45.508;-122.806;2023-04-25T02:11:13;101453.78;;;16.36;47.61
50852;BME280;43953;45.508;-122.806;2023-04-25T02:11:45;101458.34;;;16.35;47.85
50852;BME280;43953;45.508;-122.806;2023-04-25T02:12:17;101449.38;;;16.35;47.87
50852;BME280;43953;45.508;-122.806;2023-04-25T02:12:49;101457.31;;;16.36;47.67
50852;BME280;43953;45.508;-122.806;2023-04-25T02:13:20;101460.84;;;16.37;47.73
50852;BME280;43953;45.508;-122.806;2023-04-25T02:13:52;101451.88;;;16.36;47.82
50852;BME280;43953;45.508;-122.806;2023-04-25T02:14:24;101452.69;;;16.37;47.66
50852;BME280;43953;45.508;-122.806;2023-04-25T02:14:56;101452.44;;;16.38;47.93
50852;BME280;43953;45.508;-122.806;2023-04-25T02:15:27;101455.16;;;16.38;47.77
50852;BME280;43953;45.508;-122.806;2023-04-25T02:15:59;101456.84;;;16.40;47.71
50852;BME280;43953;45.508;-122.806;2023-04-25T02:16:31;101456.03;;;16.39;47.61
50852;BME280;43953;45.508;-122.806;2023-04-25T02:17:02;101454.94;;;16.40;47.89
50852;BME280;43953;45.508;-122.806;2023-04-25T02:17:34;101457.69;;;16.40;47.56
50852;BME280;43953;45.508;-122.806;2023-04-25T02:18:06;101453.06;;;16.41;47.46
50852;BME280;43953;45.508;-122.806;2023-04-25T02:18:38;101460.19;;;16.42;47.52
50852;BME280;43953;45.508;-122.806;2023-04-25T02:19:10;101456.38;;;16.43;47.57
50852;BME280;43953;45.508;-122.806;2023-04-25T02:19:42;101458.03;;;16.44;47.45
50852;BME280;43953;45.508;-122.806;2023-04-25T02:20:14;101459.94;;;16.43;47.35
50852;BME280;43953;45.508;-122.806;2023-04-25T02:20:47;101459.09;;;16.43;47.42
50852;BME280;43953;45.508;-122.806;2023-04-25T02:21:19;101458.84;;;16.44;47.58
50852;BME280;43953;45.508;-122.806;2023-04-25T02:21:51;101464.09;;;16.46;47.51
50852;BME280;43953;45.508;-122.806;2023-04-25T02:22:22;101471.41;;;16.45;47.33
50852;BME280;43953;45.508;-122.806;2023-04-25T02:22:54;101465.38;;;16.43;47.48
50852;BME280;43953;45.508;-122.806;2023-04-25T02:23:26;101461.56;;;16.44;47.22
50852;BME280;43953;45.508;-122.806;2023-04-25T02:23:58;101470.59;;;16.45;47.40
50852;BME280;43953;45.508;-122.806;2023-04-25T02:24:30;101462.44;;;16.45;47.46
50852;BME280;43953;45.508;-122.806;2023-04-25T02:25:03;101462.66;;;16.43;47.15
50852;BME280;43953;45.508;-122.806;2023-04-25T02:25:35;101468.53;;;16.40;47.35
50852;BME280;43953;45.508;-122.806;2023-04-25T02:26:07;101475.06;;;16.39;47.30
50852;BME280;43953;45.508;-122.806;2023-04-25T02:26:39;101476.09;;;16.38;47.11
50852;BME280;43953;45.508;-122.806;2023-04-25T02:27:11;101467.34;;;16.36;47.25
50852;BME280;43953;45.508;-122.806;2023-04-25T02:27:42;101471.94;;;16.35;47.44
50852;BME280;43953;45.508;-122.806;2023-04-25T02:28:14;101475.50;;;16.36;47.58
50852;BME280;43953;45.508;-122.806;2023-04-25T02:28:46;101471.13;;;16.35;47.53
50852;BME280;43953;45.508;-122.806;2023-04-25T02:29:18;101474.06;;;16.33;47.62
50852;BME280;43953;45.508;-122.806;2023-04-25T02:29:50;101469.09;;;16.30;47.79
50852;BME280;43953;45.508;-122.806;2023-04-25T02:30:22;101471.22;;;16.28;47.56
50852;BME280;43953;45.508;-122.806;2023-04-25T02:30:53;101472.03;;;16.29;47.63
50852;BME280;43953;45.508;-122.806;2023-04-25T02:31:25;101472.03;;;16.29;47.67
50852;BME280;43953;45.508;-122.806;2023-04-25T02:31:57;101472.63;;;16.31;47.61
50852;BME280;43953;45.508;-122.806;2023-04-25T02:32:28;101467.41;;;16.29;47.59
50852;BME280;43953;45.508;-122.806;2023-04-25T02:33:00;101471.22;;;16.28;47.56
50852;BME280;43953;45.508;-122.806;2023-04-25T02:33:32;101462.44;;;16.26;47.54
50852;BME280;43953;45.508;-122.806;2023-04-25T02:34:04;101476.28;;;16.25;47.51
50852;BME280;43953;45.508;-122.806;2023-04-25T02:34:35;101471.06;;;16.23;47.61
50852;BME280;43953;45.508;-122.806;2023-04-25T02:35:08;101464.63;;;16.18;47.58
50852;BME280;43953;45.508;-122.806;2023-04-25T02:35:40;101465.50;;;16.18;47.74
50852;BME280;43953;45.508;-122.806;2023-04-25T02:36:12;101467.59;;;16.16;47.67
50852;BME280;43953;45.508;-122.806;2023-04-25T02:36:43;101477.63;;;16.15;47.84
50852;BME280;43953;45.508;-122.806;2023-04-25T02:37:15;101478.91;;;16.13;47.95
50852;BME280;43953;45.508;-122.806;2023-04-25T02:37:47;101472.66;;;16.12;47.86
50852;BME280;43953;45.508;-122.806;2023-04-25T02:38:19;101471.22;;;16.10;48.01
50852;BME280;43953;45.508;-122.806;2023-04-25T02:38:50;101474.16;;;16.08;48.11
50852;BME280;43953;45.508;-122.806;2023-04-25T02:39:23;101468.97;;;16.07;48.24
50852;BME280;43953;45.508;-122.806;2023-04-25T02:39:56;101467.28;;;16.06;48.12
50852;BME280;43953;45.508;-122.806;2023-04-25T02:40:28;101471.31;;;16.03;48.30
50852;BME280;43953;45.508;-122.806;2023-04-25T02:40:59;101471.53;;;16.02;48.35
50852;BME280;43953;45.508;-122.806;2023-04-25T02:41:31;101471.75;;;16.00;48.43
50852;BME280;43953;45.508;-122.806;2023-04-25T02:42:03;101473.63;;;16.00;48.55